Time;durP1;ratioP1;P1;durP2;ratioP2;P2;SDS_P1;SDS_P2;PMS_P1;PMS_P2;Temp;Humidity;BMP_temperature;BMP_pressure;BME280_temperature;BME280_humidity;BME280_pressure;Samples;Min_cycle;Max_cycle;Signal;HPM_P1;HPM_P2
2022/02/07 00:00:44;;;;;;;;;;;;;;;1.91;100.00;100252.34;2569901;30;138390;-37
2022/02/07 00:03:17;;;;;;;;;;;;;;;1.94;100.00;100265.44;2568865;30;136978;-38
2022/02/07 00:05:45;;;;;;;;;;;;;;;2.06;100.00;100279.41;2567851;30;139499;-37
2022/02/07 00:08:14;;;;;;;;;;;;;;;2.12;100.00;100292.16;2568114;30;137200;-37
2022/02/07 00:10:42;;;;;;;;;;;;;;;2.10;100.00;100308.47;2569619;30;136917;-37
2022/02/07 00:13:10;;;;;;;;;;;;;;;2.13;100.00;100310.84;2565703;30;137841;-37
2022/02/07 00:15:38;;;;;;;;;;;;;;;2.15;100.00;100300.75;2569672;30;136808;-37
2022/02/07 00:18:07;;;;;;;;;;;;;;;2.14;100.00;100303.59;2570707;30;138378;-37
2022/02/07 00:20:35;;;;;;;;;;;;;;;2.08;100.00;100302.41;2568045;30;138450;-37
2022/02/07 00:23:03;;;;;;;;;;;;;;;2.08;100.00;100302.41;2568350;30;137777;-37
2022/02/07 00:25:31;;;;;;;;;;;;;;;2.06;100.00;100320.59;2568763;30;139003;-38
2022/02/07 00:27:59;;;;;;;;;;;;;;;1.97;100.00;100325.13;2566736;30;137738;-37
2022/02/07 00:30:27;;;;;;;;;;;;;;;1.92;100.00;100348.19;2568184;30;138226;-37
2022/02/07 00:32:55;;;;;;;;;;;;;;;1.82;100.00;100346.47;2569687;30;136714;-37
2022/02/07 00:35:24;;;;;;;;;;;;;;;1.78;100.00;100355.91;2567483;30;138213;-38
2022/02/07 00:37:54;;;;;;;;;;;;;;;1.69;100.00;100362.28;2567311;30;137334;-37
2022/02/07 00:45:39;;;;;;;;;;;;;;;1.52;100.00;100389.13;2568949;30;137136;-38
2022/02/07 00:48:08;;;;;;;;;;;;;;;1.49;100.00;100394.00;2566685;30;138834;-38
2022/02/07 00:50:39;;;;;;;;;;;;;;;1.47;100.00;100404.91;2568032;30;139377;-37
2022/02/07 00:53:11;;;;;;;;;;;;;;;1.40;100.00;100401.19;2566408;30;139018;-37
2022/02/07 00:55:42;;;;;;;;;;;;;;;1.41;100.00;100419.00;2565829;30;139284;-37
2022/02/07 00:58:10;;;;;;;;;;;;;;;1.35;100.00;100420.50;2566552;30;138447;-37
2022/02/07 01:00:39;;;;;;;;;;;;;;;1.34;100.00;100428.75;2568334;30;138284;-38
2022/02/07 01:03:07;;;;;;;;;;;;;;;1.36;100.00;100438.31;2568214;30;138869;-37
2022/02/07 01:05:41;;;;;;;;;;;;;;;1.39;100.00;100443.34;2568183;30;138748;-37
2022/02/07 01:08:18;;;;;;;;;;;;;;;1.36;100.00;100457.13;2566845;30;137981;-37
2022/02/07 01:13:55;;;;;;;;;;;;;;;1.43;100.00;100470.78;2568014;30;139439;-37
2022/02/07 01:19:37;;;;;;;;;;;;;;;1.40;100.00;100485.38;2568282;30;138728;-37
2022/02/07 01:22:28;;;;;;;;;;;;;;;1.36;100.00;100489.38;2566910;30;138353;-37
2022/02/07 01:55:49;;;;;;;;;;;;;;;1.90;100.00;100627.34;2567357;30;140274;-40
2022/02/07 01:58:19;;;;;;;;;;;;;;;1.94;100.00;100644.84;2568867;30;137715;-40
2022/02/07 02:00:47;;;;;;;;;;;;;;;1.99;100.00;100647.91;2567745;30;140497;-40
2022/02/07 02:03:15;;;;;;;;;;;;;;;1.97;100.00;100647.22;2569167;30;138482;-40
2022/02/07 02:05:56;;;;;;;;;;;;;;;2.09;100.00;100682.78;2565888;30;136864;-40
2022/02/07 02:08:32;;;;;;;;;;;;;;;2.06;100.00;100689.31;2566871;30;137948;-40
2022/02/07 02:11:01;;;;;;;;;;;;;;;2.00;100.00;100687.25;2566675;30;140754;-40
2022/02/07 02:16:27;;;;;;;;;;;;;;;1.85;100.00;100717.44;2567836;30;138272;-39
2022/02/07 02:22:48;;;;;;;;;;;;;;;1.67;100.00;100732.78;2565782;30;140238;-40
2022/02/07 02:34:02;;;;;;;;;;;;;;;1.36;100.00;100770.84;2566963;30;140156;-40
2022/02/07 02:46:58;;;;;;;;;;;;;;;1.08;100.00;100820.09;2568175;30;139373;-40
2022/02/07 02:49:32;;;;;;;;;;;;;;;1.03;100.00;100827.78;2568299;30;140823;-40
2022/02/07 02:52:00;;;;;;;;;;;;;;;1.06;100.00;100840.03;2568782;30;139341;-40
2022/02/07 02:54:28;;;;;;;;;;;;;;;1.03;100.00;100856.47;2568798;30;140104;-40
2022/02/07 02:56:56;;;;;;;;;;;;;;;1.08;100.00;100859.56;2567146;30;138489;-40
2022/02/07 02:59:24;;;;;;;;;;;;;;;1.03;100.00;100861.84;2568301;30;137094;-40
2022/02/07 03:01:52;;;;;;;;;;;;;;;1.07;100.00;100882.06;2566552;30;137421;-40
2022/02/07 03:04:20;;;;;;;;;;;;;;;1.04;100.00;100890.41;2569416;30;139996;-40
2022/02/07 03:06:49;;;;;;;;;;;;;;;1.04;100.00;100891.25;2568413;30;138838;-40
2022/02/07 03:09:18;;;;;;;;;;;;;;;0.98;100.00;100892.69;2568341;30;140631;-39
2022/02/07 03:11:48;;;;;;;;;;;;;;;0.93;100.00;100905.72;2567806;30;138169;-40
2022/02/07 03:14:34;;;;;;;;;;;;;;;1.02;100.00;100913.91;2566539;30;139558;-40
2022/02/07 03:17:05;;;;;;;;;;;;;;;1.03;100.00;100912.91;2568025;30;138694;-40
2022/02/07 03:19:34;;;;;;;;;;;;;;;1.08;100.00;100929.44;2568570;30;139128;-40
2022/02/07 03:22:02;;;;;;;;;;;;;;;1.11;100.00;100927.28;2567245;30;139006;-40
2022/02/07 03:24:30;;;;;;;;;;;;;;;1.15;100.00;100934.06;2565476;30;140100;-40
2022/02/07 03:27:19;;;;;;;;;;;;;;;1.21;100.00;100942.56;2568747;30;139245;-40
2022/02/07 03:29:51;;;;;;;;;;;;;;;1.21;100.00;100945.25;2568357;30;139783;-40
2022/02/07 03:32:24;;;;;;;;;;;;;;;1.19;100.00;100958.81;2566235;30;137428;-39
2022/02/07 03:35:07;;;;;;;;;;;;;;;1.12;100.00;100958.56;2568168;30;138399;-40
2022/02/07 03:37:35;;;;;;;;;;;;;;;1.09;100.00;100958.03;2569903;30;138522;-40
2022/02/07 03:40:04;;;;;;;;;;;;;;;1.20;100.00;100976.63;2567679;30;138490;-40
2022/02/07 03:42:33;;;;;;;;;;;;;;;1.25;100.00;100978.91;2566290;30;138746;-40
2022/02/07 03:45:06;;;;;;;;;;;;;;;1.24;100.00;100990.63;2567757;30;137999;-40
2022/02/07 03:47:39;;;;;;;;;;;;;;;1.27;100.00;100998.41;2564855;30;138461;-40
2022/02/07 03:50:08;;;;;;;;;;;;;;;1.37;100.00;101009.97;2566744;30;139809;-39
2022/02/07 03:52:42;;;;;;;;;;;;;;;1.37;100.00;101022.56;2567218;30;138901;-40
2022/02/07 03:55:11;;;;;;;;;;;;;;;1.43;100.00;101032.72;2567660;30;139607;-40
2022/02/07 03:57:42;;;;;;;;;;;;;;;1.47;100.00;101033.28;2568754;30;138483;-39
2022/02/07 04:00:11;;;;;;;;;;;;;;;1.54;100.00;101045.16;2566502;30;141136;-40
2022/02/07 04:02:45;;;;;;;;;;;;;;;1.51;100.00;101040.06;2568874;30;138109;-40
2022/02/07 04:05:49;;;;;;;;;;;;;;;1.50;100.00;101047.28;2565242;30;138229;-40
2022/02/07 04:08:25;;;;;;;;;;;;;;;1.44;100.00;101053.25;2568477;30;137970;-40
2022/02/07 04:11:09;;;;;;;;;;;;;;;1.38;100.00;101062.75;2567000;30;139397;-40
2022/02/07 04:13:41;;;;;;;;;;;;;;;1.35;100.00;101070.25;2568179;30;138270;-40
2022/02/07 04:16:11;;;;;;;;;;;;;;;1.38;100.00;101076.19;2565333;30;139873;-39
2022/02/07 04:19:15;;;;;;;;;;;;;;;1.34;100.00;101084.72;2567953;30;137331;-40
2022/02/07 04:21:39;;;;;;;;;;;;;;;1.31;100.00;101090.34;2566721;30;141217;-40
2022/02/07 04:24:09;;;;;;;;;;;;;;;1.31;100.00;101098.41;2565182;30;138315;-40
2022/02/07 04:26:44;;;;;;;;;;;;;;;1.25;100.00;101103.38;2567786;30;139488;-40
2022/02/07 04:29:13;;;;;;;;;;;;;;;1.22;100.00;101108.22;2568811;30;138539;-40
2022/02/07 04:31:42;;;;;;;;;;;;;;;1.26;100.00;101117.69;2567622;30;140724;-40
2022/02/07 04:34:13;;;;;;;;;;;;;;;1.29;100.00;101125.47;2566956;30;138321;-40
2022/02/07 04:36:43;;;;;;;;;;;;;;;1.21;100.00;101125.34;2568031;30;138570;-40
2022/02/07 04:39:12;;;;;;;;;;;;;;;1.25;100.00;101141.00;2567560;30;139295;-39
2022/02/07 04:41:42;;;;;;;;;;;;;;;1.25;100.00;101145.56;2567846;30;137212;-39
2022/02/07 04:44:17;;;;;;;;;;;;;;;1.25;100.00;101153.63;2565524;30;138544;-40
2022/02/07 04:49:46;;;;;;;;;;;;;;;1.34;100.00;101168.06;2568214;30;139457;-40
2022/02/07 04:55:10;;;;;;;;;;;;;;;1.43;100.00;101169.88;2568215;30;138723;-40
2022/02/07 04:57:49;;;;;;;;;;;;;;;1.47;100.00;101173.13;2568770;30;138361;-40
2022/02/07 05:03:03;;;;;;;;;;;;;;;1.68;100.00;101183.69;2565878;30;139851;-39
2022/02/07 05:16:26;;;;;;;;;;;;;;;1.95;100.00;101217.88;2565967;30;139583;-39
2022/02/07 05:19:12;;;;;;;;;;;;;;;1.98;100.00;101228.34;2568561;30;136883;-40
2022/02/07 05:21:44;;;;;;;;;;;;;;;2.01;100.00;101238.00;2567661;30;137077;-40
2022/02/07 05:24:31;;;;;;;;;;;;;;;2.05;100.00;101238.56;2565389;30;138207;-40
2022/02/07 05:26:59;;;;;;;;;;;;;;;2.09;100.00;101243.47;2569046;30;136968;-39
2022/02/07 05:29:42;;;;;;;;;;;;;;;2.14;100.00;101241.22;2565308;30;138611;-39
2022/02/07 05:32:26;;;;;;;;;;;;;;;2.17;100.00;101258.06;2568015;30;138458;-39
2022/02/07 05:35:06;;;;;;;;;;;;;;;2.23;100.00;101258.31;2569113;30;137201;-39
2022/02/07 05:37:49;;;;;;;;;;;;;;;2.22;100.00;101275.47;2569368;30;137014;-40
2022/02/07 05:43:19;;;;;;;;;;;;;;;2.28;100.00;101284.81;2567892;30;138723;-40
2022/02/07 05:46:04;;;;;;;;;;;;;;;2.35;100.00;101299.38;2567903;30;138440;-39
2022/02/07 05:48:38;;;;;;;;;;;;;;;2.43;100.00;101294.13;2569488;30;136837;-39
2022/02/07 05:51:30;;;;;;;;;;;;;;;2.39;100.00;101305.34;2566939;30;137212;-39
2022/02/07 05:54:07;;;;;;;;;;;;;;;2.37;100.00;101312.72;2567884;30;138253;-40
2022/02/07 05:56:52;;;;;;;;;;;;;;;2.40;100.00;101323.19;2568565;30;138213;-39
2022/02/07 05:59:39;;;;;;;;;;;;;;;2.39;100.00;101326.88;2565838;30;138486;-40
2022/02/07 06:02:33;;;;;;;;;;;;;;;2.44;100.00;101336.22;2566899;30;136910;-40
2022/02/07 06:05:08;;;;;;;;;;;;;;;2.50;100.00;101347.41;2566402;30;139480;-40
2022/02/07 06:07:36;;;;;;;;;;;;;;;2.47;100.00;101345.00;2567179;30;137420;-40
2022/02/07 06:10:05;;;;;;;;;;;;;;;2.54;100.00;101351.50;2567579;30;138189;-40
2022/02/07 06:12:37;;;;;;;;;;;;;;;2.52;100.00;101354.34;2566936;30;138281;-40
2022/02/07 06:15:05;;;;;;;;;;;;;;;2.54;100.00;101354.19;2568320;30;136775;-40
2022/02/07 06:17:34;;;;;;;;;;;;;;;2.60;100.00;101367.06;2567852;30;139588;-40
2022/02/07 06:20:05;;;;;;;;;;;;;;;2.61;100.00;101359.84;2568074;30;139414;-40
2022/02/07 06:22:34;;;;;;;;;;;;;;;2.57;100.00;101372.75;2566379;30;139426;-40
2022/02/07 06:25:03;;;;;;;;;;;;;;;2.61;100.00;101384.94;2568668;30;137904;-40
2022/02/07 06:27:31;;;;;;;;;;;;;;;2.64;100.00;101386.50;2568646;30;139719;-40
2022/02/07 06:30:02;;;;;;;;;;;;;;;2.61;100.00;101397.56;2567848;30;137232;-39
2022/02/07 06:32:30;;;;;;;;;;;;;;;2.57;100.00;101407.78;2567381;30;139078;-40
2022/02/07 06:35:00;;;;;;;;;;;;;;;2.60;100.00;101418.25;2565637;30;139416;-39
2022/02/07 06:37:28;;;;;;;;;;;;;;;2.59;100.00;101427.34;2565279;30;140036;-40
2022/02/07 06:39:56;;;;;;;;;;;;;;;2.55;100.00;101431.31;2566321;30;139429;-40
2022/02/07 06:42:24;;;;;;;;;;;;;;;2.53;100.00;101436.00;2565045;30;138453;-39
2022/02/07 06:44:53;;;;;;;;;;;;;;;2.53;100.00;101444.97;2567726;30;138451;-40
2022/02/07 06:47:21;;;;;;;;;;;;;;;2.52;100.00;101447.78;2567729;30;138919;-40
2022/02/07 06:49:49;;;;;;;;;;;;;;;2.46;100.00;101445.66;2567731;30;138364;-40
2022/02/07 06:52:17;;;;;;;;;;;;;;;2.42;100.00;101464.81;2567376;30;139708;-40
2022/02/07 06:54:46;;;;;;;;;;;;;;;2.39;100.00;101470.50;2565683;30;138289;-40
2022/02/07 06:57:16;;;;;;;;;;;;;;;2.39;100.00;101469.63;2567778;30;139739;-40
2022/02/07 06:59:45;;;;;;;;;;;;;;;2.37;100.00;101485.06;2566867;30;138020;-40
2022/02/07 07:02:15;;;;;;;;;;;;;;;2.33;100.00;101489.06;2566032;30;139332;-39
2022/02/07 07:04:43;;;;;;;;;;;;;;;2.38;100.00;101502.94;2568835;30;138845;-40
2022/02/07 07:07:13;;;;;;;;;;;;;;;2.39;100.00;101507.34;2567589;30;139456;-40
2022/02/07 07:09:43;;;;;;;;;;;;;;;2.39;100.00;101516.28;2566102;30;139581;-40
2022/02/07 07:12:12;;;;;;;;;;;;;;;2.42;100.00;101516.00;2567806;30;139408;-40
2022/02/07 07:15:05;;;;;;;;;;;;;;;2.45;100.00;101533.69;2567933;30;137910;-40
2022/02/07 07:17:35;;;;;;;;;;;;;;;2.51;100.00;101534.97;2566144;30;138471;-40
2022/02/07 07:20:05;;;;;;;;;;;;;;;2.53;100.00;101531.16;2568693;30;139115;-39
2022/02/07 07:22:35;;;;;;;;;;;;;;;2.59;100.00;101548.59;2566510;30;138176;-39
2022/02/07 07:25:14;;;;;;;;;;;;;;;2.55;100.00;101566.03;2568103;30;139550;-40
2022/02/07 07:27:57;;;;;;;;;;;;;;;2.46;100.00;101550.72;2567644;30;139321;-40
2022/02/07 07:30:30;;;;;;;;;;;;;;;2.56;100.00;101578.50;2567625;30;138204;-39
2022/02/07 07:33:07;;;;;;;;;;;;;;;2.53;100.00;101576.09;2569099;30;139932;-40
2022/02/07 07:35:36;;;;;;;;;;;;;;;2.48;100.00;101579.19;2567859;30;139200;-37
2022/02/07 07:38:06;;;;;;;;;;;;;;;2.54;100.00;101583.19;2568029;30;139364;-37
2022/02/07 07:40:35;;;;;;;;;;;;;;;2.55;100.00;101590.28;2566885;30;138175;-37
2022/02/07 07:43:07;;;;;;;;;;;;;;;2.58;100.00;101595.38;2568844;30;138387;-38
2022/02/07 07:46:14;;;;;;;;;;;;;;;2.64;100.00;101604.75;2568193;30;136897;-37
2022/02/07 07:49:31;;;;;;;;;;;;;;;2.80;100.00;101626.59;2567740;30;138142;-37
2022/02/07 07:52:30;;;;;;;;;;;;;;;2.85;100.00;101643.19;2568848;30;136649;-37
2022/02/07 08:03:27;;;;;;;;;;;;;;;2.81;100.00;101643.63;2569323;30;138519;-37
2022/02/07 08:06:08;;;;;;;;;;;;;;;2.81;100.00;101647.19;2568412;30;139198;-37
2022/02/07 08:11:29;;;;;;;;;;;;;;;2.82;100.00;101646.19;2568910;30;139942;-37
2022/02/07 08:14:01;;;;;;;;;;;;;;;2.80;100.00;101652.69;2568273;30;138155;-37
2022/02/07 08:16:32;;;;;;;;;;;;;;;2.81;100.00;101657.97;2566350;30;138186;-37
2022/02/07 08:19:06;;;;;;;;;;;;;;;2.84;100.00;101660.38;2569208;30;136709;-37
2022/02/07 08:21:34;;;;;;;;;;;;;;;2.89;100.00;101694.97;2569132;30;137601;-37
2022/02/07 08:24:03;;;;;;;;;;;;;;;2.95;100.00;101705.22;2566219;30;137045;-37
2022/02/07 08:26:31;;;;;;;;;;;;;;;2.99;100.00;101722.81;2569387;30;138470;-37
2022/02/07 08:28:58;;;;;;;;;;;;;;;3.06;100.00;101731.19;2567204;30;137937;-37
2022/02/07 08:31:26;;;;;;;;;;;;;;;3.20;100.00;101740.72;2568468;30;137058;-37
2022/02/07 08:33:54;;;;;;;;;;;;;;;3.35;100.00;101740.28;2568756;30;137201;-37
2022/02/07 08:36:22;;;;;;;;;;;;;;;3.40;100.00;101746.09;2569294;30;139284;-37
2022/02/07 08:38:50;;;;;;;;;;;;;;;3.42;100.00;101746.78;2568433;30;137316;-37
2022/02/07 08:41:18;;;;;;;;;;;;;;;3.41;100.00;101769.38;2569317;30;138416;-37
2022/02/07 08:43:45;;;;;;;;;;;;;;;3.45;100.00;101754.63;2568855;30;137376;-37
2022/02/07 08:46:13;;;;;;;;;;;;;;;3.44;100.00;101758.28;2567885;30;138269;-37
2022/02/07 08:48:41;;;;;;;;;;;;;;;3.43;100.00;101775.47;2568833;30;136973;-37
2022/02/07 08:51:09;;;;;;;;;;;;;;;3.49;100.00;101764.13;2567814;30;138191;-37
2022/02/07 08:53:43;;;;;;;;;;;;;;;3.54;100.00;101769.09;2568333;30;138118;-37
2022/02/07 08:56:11;;;;;;;;;;;;;;;3.54;100.00;101783.44;2566850;30;138333;-37
2022/02/07 08:58:43;;;;;;;;;;;;;;;3.53;100.00;101773.66;2568523;30;136733;-37
2022/02/07 09:01:29;;;;;;;;;;;;;;;3.55;100.00;101779.75;2568368;30;137446;-37
2022/02/07 09:04:30;;;;;;;;;;;;;;;3.62;100.00;101789.97;2569386;30;137357;-37
2022/02/07 09:07:07;;;;;;;;;;;;;;;3.60;100.00;101795.53;2569539;30;138481;-37
2022/02/07 09:09:36;;;;;;;;;;;;;;;3.66;100.00;101803.03;2566763;30;137398;-37
2022/02/07 09:12:04;;;;;;;;;;;;;;;3.75;100.00;101795.94;2567511;30;139145;-37
2022/02/07 09:14:32;;;;;;;;;;;;;;;3.76;100.00;101804.88;2568733;30;137087;-37
2022/02/07 09:17:00;;;;;;;;;;;;;;;3.76;100.00;101800.34;2568509;30;138218;-37
2022/02/07 09:19:28;;;;;;;;;;;;;;;3.74;100.00;101805.88;2568322;30;137138;-37
2022/02/07 09:21:56;;;;;;;;;;;;;;;3.83;100.00;101812.25;2568264;30;139792;-37
2022/02/07 09:24:24;;;;;;;;;;;;;;;3.89;100.00;101813.53;2568558;30;137300;-37
2022/02/07 09:26:52;;;;;;;;;;;;;;;3.96;100.00;101811.09;2568427;30;137192;-37
2022/02/07 09:29:21;;;;;;;;;;;;;;;4.00;100.00;101817.94;2569154;30;137007;-37
2022/02/07 09:31:49;;;;;;;;;;;;;;;4.10;100.00;101820.59;2567893;30;139268;-37
2022/02/07 09:34:17;;;;;;;;;;;;;;;4.21;100.00;101830.38;2568631;30;136859;-37
2022/02/07 09:36:45;;;;;;;;;;;;;;;4.37;100.00;101827.06;2569882;30;137165;-38
2022/02/07 09:39:13;;;;;;;;;;;;;;;4.58;100.00;101835.81;2566083;30;137285;-37
2022/02/07 09:41:41;;;;;;;;;;;;;;;4.63;100.00;101845.31;2568323;30;138550;-37
2022/02/07 09:44:09;;;;;;;;;;;;;;;4.61;100.00;101861.72;2567772;30;136995;-37
2022/02/07 09:49:12;;;;;;;;;;;;;;;4.59;100.00;101855.59;2567698;30;136704;-38
2022/02/07 09:51:43;;;;;;;;;;;;;;;4.67;100.00;101860.28;2568219;30;139039;-37
2022/02/07 09:54:15;;;;;;;;;;;;;;;4.84;100.00;101880.28;2568863;30;137194;-37
2022/02/07 09:56:45;;;;;;;;;;;;;;;4.94;99.17;101885.66;2567396;30;137785;-37
2022/02/07 09:59:14;;;;;;;;;;;;;;;5.04;98.64;101898.13;2566301;30;137389;-37
2022/02/07 10:01:45;;;;;;;;;;;;;;;5.20;98.21;101901.19;2569051;30;138223;-38
2022/02/07 10:04:26;;;;;;;;;;;;;;;5.29;96.37;101908.38;2569256;30;137046;-37
2022/02/07 10:07:51;;;;;;;;;;;;;;;5.31;96.80;101925.31;2568529;30;138233;-38
2022/02/07 10:10:11;;;;;;;;;;;;;;;5.38;96.76;101931.00;2567270;30;136766;-38
2022/02/07 10:13:16;;;;;;;;;;;;;;;5.44;94.87;101944.78;2567267;30;138708;-38
2022/02/07 10:15:37;;;;;;;;;;;;;;;5.49;95.54;101947.00;2568572;30;137198;-37
2022/02/07 10:40:25;;;;;;;;;;;;;;;6.14;95.00;102008.38;2566989;30;138122;-38
2022/02/07 10:45:50;;;;;;;;;;;;;;;6.13;92.07;102001.25;2568319;30;137316;-37
2022/02/07 10:48:34;;;;;;;;;;;;;;;6.25;93.37;101993.72;2568761;30;137022;-38
2022/02/07 10:51:05;;;;;;;;;;;;;;;6.44;94.20;102002.69;2569303;30;137173;-38
2022/02/07 10:53:36;;;;;;;;;;;;;;;6.66;92.73;101998.66;2568497;30;137673;-38
2022/02/07 10:56:04;;;;;;;;;;;;;;;6.70;91.45;102010.00;2569282;30;138589;-38
2022/02/07 10:58:32;;;;;;;;;;;;;;;6.54;88.14;102016.16;2567567;30;137241;-38
2022/02/07 11:01:26;;;;;;;;;;;;;;;6.49;89.62;102022.03;2569605;30;137310;-38
2022/02/07 11:03:55;;;;;;;;;;;;;;;6.38;90.44;102030.41;2567510;30;137274;-38
2022/02/07 11:06:30;;;;;;;;;;;;;;;6.38;91.17;102025.00;2566653;30;138365;-38
2022/02/07 11:19:38;;;;;;;;;;;;;;;6.26;92.11;102049.63;2567863;30;136879;-37
2022/02/07 11:25:11;;;;;;;;;;;;;;;5.99;92.59;102048.66;2570517;30;137366;-37
2022/02/07 11:27:50;;;;;;;;;;;;;;;5.97;93.32;102063.34;2569117;30;139082;-38
2022/02/07 11:30:20;;;;;;;;;;;;;;;5.95;93.34;102074.31;2568825;30;136843;-38
2022/02/07 11:32:53;;;;;;;;;;;;;;;6.00;92.48;102060.31;2567077;30;138068;-38
2022/02/07 11:35:48;;;;;;;;;;;;;;;6.16;94.00;102074.09;2569351;30;137126;-37
2022/02/07 11:38:18;;;;;;;;;;;;;;;6.26;91.21;102070.47;2568643;30;139133;-38
2022/02/07 11:41:02;;;;;;;;;;;;;;;6.29;91.48;102072.84;2566961;30;137094;-37
2022/02/07 11:43:31;;;;;;;;;;;;;;;6.14;89.55;102072.53;2568662;30;138035;-37
2022/02/07 11:46:06;;;;;;;;;;;;;;;6.16;90.68;102070.50;2569619;30;136998;-37
2022/02/07 11:48:34;;;;;;;;;;;;;;;6.25;92.12;102085.00;2565353;30;137969;-37
2022/02/07 11:51:16;;;;;;;;;;;;;;;6.29;89.02;102075.56;2568236;30;137105;-37
2022/02/07 11:53:48;;;;;;;;;;;;;;;6.30;88.70;102077.28;2567793;30;139430;-37
2022/02/07 11:56:28;;;;;;;;;;;;;;;6.29;88.94;102083.69;2567236;30;137337;-37
2022/02/07 11:59:01;;;;;;;;;;;;;;;6.37;88.16;102072.97;2568010;30;139368;-37
2022/02/07 12:01:47;;;;;;;;;;;;;;;6.60;90.98;102077.91;2570908;30;137083;-37
2022/02/07 12:04:27;;;;;;;;;;;;;;;6.71;88.35;102084.94;2568838;30;138181;-37
2022/02/07 12:07:13;;;;;;;;;;;;;;;6.71;87.89;102095.78;2565867;30;137567;-37
2022/02/07 12:12:47;;;;;;;;;;;;;;;6.54;88.29;102094.78;2569034;30;137440;-37
2022/02/07 12:15:18;;;;;;;;;;;;;;;6.48;88.65;102096.25;2566222;30;138668;-37
2022/02/07 12:17:50;;;;;;;;;;;;;;;6.49;89.76;102092.53;2568866;30;137068;-38
2022/02/07 12:20:23;;;;;;;;;;;;;;;6.44;89.38;102094.88;2568139;30;138167;-37
2022/02/07 12:22:50;;;;;;;;;;;;;;;6.53;89.58;102090.38;2567538;30;137430;-37
2022/02/07 12:25:44;;;;;;;;;;;;;;;6.62;90.24;102092.16;2568680;30;138641;-38
2022/02/07 12:28:26;;;;;;;;;;;;;;;6.69;90.65;102098.69;2569713;30;137216;-37
2022/02/07 12:33:39;;;;;;;;;;;;;;;6.79;88.42;102082.31;2566417;30;138352;-37
2022/02/07 12:36:07;;;;;;;;;;;;;;;7.00;88.71;102084.69;2567264;30;139310;-37
2022/02/07 12:38:40;;;;;;;;;;;;;;;7.05;86.63;102086.94;2568557;30;137029;-38
2022/02/07 12:41:09;;;;;;;;;;;;;;;7.01;85.33;102093.66;2566052;30;137455;-38
2022/02/07 12:43:38;;;;;;;;;;;;;;;7.02;86.60;102103.50;2568211;30;136851;-38
2022/02/07 12:46:11;;;;;;;;;;;;;;;6.84;85.11;102104.41;2571831;30;137574;-37
2022/02/07 12:48:49;;;;;;;;;;;;;;;6.75;85.48;102100.75;2568191;30;136666;-37
2022/02/07 12:51:20;;;;;;;;;;;;;;;6.90;85.74;102095.63;2568890;30;138251;-37
2022/02/07 12:53:48;;;;;;;;;;;;;;;6.89;83.46;102095.78;2569114;30;136742;-37
2022/02/07 12:56:16;;;;;;;;;;;;;;;6.94;84.82;102101.59;2568626;30;138441;-38
2022/02/07 12:58:44;;;;;;;;;;;;;;;7.14;86.04;102101.41;2568870;30;136777;-38
2022/02/07 13:01:28;;;;;;;;;;;;;;;7.14;81.87;102106.81;2567640;30;136741;-37
2022/02/07 13:03:58;;;;;;;;;;;;;;;7.21;85.02;102110.63;2567156;30;138156;-37
2022/02/07 13:06:31;;;;;;;;;;;;;;;7.22;81.41;102103.31;2565207;30;137907;-38
2022/02/07 13:09:19;;;;;;;;;;;;;;;7.24;81.75;102113.03;2570060;30;137138;-37
2022/02/07 13:11:47;;;;;;;;;;;;;;;7.27;81.54;102106.41;2568254;30;137333;-38
2022/02/07 13:14:16;;;;;;;;;;;;;;;7.31;83.00;102116.81;2567278;30;137080;-37
2022/02/07 13:16:45;;;;;;;;;;;;;;;7.31;81.02;102115.97;2568153;30;137623;-38
2022/02/07 13:19:14;;;;;;;;;;;;;;;7.19;80.67;102123.50;2568271;30;137323;-38
2022/02/07 13:21:44;;;;;;;;;;;;;;;7.16;80.13;102118.38;2567628;30;138273;-38
2022/02/07 13:24:14;;;;;;;;;;;;;;;7.22;78.73;102125.91;2569189;30;137381;-37
2022/02/07 13:26:45;;;;;;;;;;;;;;;7.34;79.28;102130.06;2568201;30;138510;-38
2022/02/07 13:29:17;;;;;;;;;;;;;;;7.29;77.72;102139.69;2568214;30;137108;-38
2022/02/07 13:31:51;;;;;;;;;;;;;;;7.08;78.81;102131.88;2568989;30;137537;-37
2022/02/07 13:34:20;;;;;;;;;;;;;;;6.90;79.44;102149.06;2570073;30;136898;-40
2022/02/07 13:36:50;;;;;;;;;;;;;;;6.75;78.14;102144.16;2567929;30;138407;-40
2022/02/07 13:39:19;;;;;;;;;;;;;;;6.75;79.94;102151.44;2565648;30;137011;-40
2022/02/07 13:42:00;;;;;;;;;;;;;;;6.75;79.14;102165.88;2567633;30;138986;-40
2022/02/07 13:44:28;;;;;;;;;;;;;;;6.88;77.98;102165.47;2566936;30;136649;-40
2022/02/07 13:47:00;;;;;;;;;;;;;;;7.11;78.54;102156.00;2568983;30;137773;-40
2022/02/07 13:49:29;;;;;;;;;;;;;;;7.32;78.17;102156.50;2568830;30;137758;-40
2022/02/07 13:51:57;;;;;;;;;;;;;;;7.45;78.41;102168.84;2568830;30;138269;-40
2022/02/07 13:54:29;;;;;;;;;;;;;;;7.41;75.65;102171.00;2568119;30;138215;-40
2022/02/07 13:57:00;;;;;;;;;;;;;;;7.30;76.28;102172.09;2567449;30;138093;-40
2022/02/07 13:59:35;;;;;;;;;;;;;;;7.10;78.05;102185.03;2565924;30;139031;-40
2022/02/07 14:02:03;;;;;;;;;;;;;;;6.92;77.39;102182.31;2568081;30;139401;-40
2022/02/07 14:04:31;;;;;;;;;;;;;;;6.79;79.34;102185.41;2567868;30;137343;-40
2022/02/07 14:07:03;;;;;;;;;;;;;;;6.79;80.43;102189.97;2568443;30;137126;-40
2022/02/07 14:09:31;;;;;;;;;;;;;;;6.82;79.00;102192.38;2568076;30;137188;-40
2022/02/07 14:11:59;;;;;;;;;;;;;;;6.71;77.89;102194.31;2566585;30;138534;-40
2022/02/07 14:14:27;;;;;;;;;;;;;;;6.65;78.18;102202.19;2568747;30;136727;-40
2022/02/07 14:16:55;;;;;;;;;;;;;;;6.65;76.42;102208.50;2568545;30;138567;-40
2022/02/07 14:19:39;;;;;;;;;;;;;;;6.65;75.43;102213.03;2569071;30;137014;-41
2022/02/07 14:22:08;;;;;;;;;;;;;;;6.62;74.93;102219.63;2568254;30;139353;-39
2022/02/07 14:24:37;;;;;;;;;;;;;;;6.68;76.71;102213.59;2567857;30;137119;-40
2022/02/07 14:27:15;;;;;;;;;;;;;;;6.79;76.49;102211.66;2568443;30;139177;-40
2022/02/07 14:29:43;;;;;;;;;;;;;;;6.79;74.78;102217.97;2567710;30;137377;-40
2022/02/07 14:32:20;;;;;;;;;;;;;;;6.76;74.36;102220.94;2565940;30;138356;-40
2022/02/07 14:34:47;;;;;;;;;;;;;;;6.78;76.05;102218.09;2567699;30;137427;-40
2022/02/07 14:37:16;;;;;;;;;;;;;;;6.75;74.10;102219.25;2569442;30;138388;-40
2022/02/07 14:39:44;;;;;;;;;;;;;;;6.67;74.30;102214.63;2568004;30;136699;-40
2022/02/07 14:42:11;;;;;;;;;;;;;;;6.61;75.34;102229.63;2567813;30;137760;-40
2022/02/07 14:44:56;;;;;;;;;;;;;;;6.74;74.60;102226.56;2568660;30;137919;-40
2022/02/07 14:50:25;;;;;;;;;;;;;;;7.06;75.91;102227.06;2567240;30;137377;-40
2022/02/07 14:52:54;;;;;;;;;;;;;;;7.19;75.36;102224.78;2568507;30;138225;-40
2022/02/07 14:55:23;;;;;;;;;;;;;;;7.19;74.18;102221.22;2564641;30;137800;-40
2022/02/07 14:57:51;;;;;;;;;;;;;;;7.19;74.54;102226.66;2567162;30;137394;-40
2022/02/07 15:00:20;;;;;;;;;;;;;;;7.09;72.34;102228.59;2568633;30;137145;-40
2022/02/07 15:02:49;;;;;;;;;;;;;;;7.03;73.19;102220.06;2567096;30;138915;-40
2022/02/07 15:05:17;;;;;;;;;;;;;;;7.03;73.27;102225.47;2568147;30;137958;-40
2022/02/07 15:07:45;;;;;;;;;;;;;;;6.95;73.47;102227.25;2568425;30;139150;-40
2022/02/07 15:10:13;;;;;;;;;;;;;;;6.98;74.13;102226.94;2569574;30;137163;-40
2022/02/07 15:12:44;;;;;;;;;;;;;;;7.01;73.51;102235.66;2567822;30;139134;-40
2022/02/07 15:15:12;;;;;;;;;;;;;;;7.08;70.92;102235.88;2568449;30;137274;-40
2022/02/07 15:17:40;;;;;;;;;;;;;;;7.04;72.12;102240.75;2567915;30;138581;-40
2022/02/07 15:20:13;;;;;;;;;;;;;;;7.04;74.50;102229.06;2568356;30;137151;-40
2022/02/07 15:22:46;;;;;;;;;;;;;;;6.96;73.04;102239.81;2568452;30;138459;-40
2022/02/07 15:25:18;;;;;;;;;;;;;;;6.75;72.49;102236.38;2565235;30;136883;-40
2022/02/07 15:27:47;;;;;;;;;;;;;;;6.61;72.14;102243.19;2565077;30;137735;-40
2022/02/07 15:30:40;;;;;;;;;;;;;;;6.55;72.94;102240.22;2567494;30;137505;-40